Time;durP1;ratioP1;P1;durP2;ratioP2;P2;SDS_P1;SDS_P2;PMS_P1;PMS_P2;Temp;Humidity;BMP_temperature;BMP_pressure;BME280_temperature;BME280_humidity;BME280_pressure;Samples;Min_cycle;Max_cycle;Signal;HPM_P1;HPM_P2
2022/10/22 00:00:09;;;;;;;8.73;2.80;;;16.10;43.10;;;;;;5089968;28;20172;-74
2022/10/22 00:02:34;;;;;;;6.20;3.33;;;16.00;44.20;;;;;;5089702;28;20238;-74
2022/10/22 00:05:00;;;;;;;16.03;2.83;;;16.00;46.80;;;;;;5090364;28;20457;-74
2022/10/22 00:07:26;;;;;;;4.10;2.53;;;16.00;47.90;;;;;;5091553;28;20610;-75
2022/10/22 00:09:52;;;;;;;5.07;2.70;;;16.00;51.70;;;;;;5090653;28;20199;-75
2022/10/22 00:12:18;;;;;;;8.07;2.83;;;16.00;43.10;;;;;;5086718;28;20246;-76
2022/10/22 00:14:43;;;;;;;6.80;3.37;;;15.90;50.10;;;;;;5089171;28;20551;-75
2022/10/22 00:17:09;;;;;;;3.93;1.93;;;15.80;50.20;;;;;;5090607;28;20175;-76
2022/10/22 00:19:35;;;;;;;3.60;2.40;;;15.70;42.90;;;;;;5090114;28;20172;-75
2022/10/22 00:22:04;;;;;;;6.83;2.83;;;15.80;46.50;;;;;;5089816;28;20944;-75
2022/10/22 00:24:30;;;;;;;3.20;2.37;;;15.70;48.30;;;;;;5094322;28;20236;-75
2022/10/22 00:26:56;;;;;;;14.20;2.43;;;15.70;49.90;;;;;;5090473;28;20424;-76
2022/10/22 00:29:22;;;;;;;4.93;2.57;;;15.60;53.00;;;;;;5088979;28;20525;-75
2022/10/22 00:31:48;;;;;;;6.30;2.63;;;15.60;52.40;;;;;;5089240;28;20226;-77
2022/10/22 00:34:16;;;;;;;3.43;2.20;;;15.60;51.20;;;;;;5086685;28;20478;-74
2022/10/22 00:36:42;;;;;;;10.57;2.50;;;15.60;51.00;;;;;;5087507;28;20414;-75
2022/10/22 00:39:07;;;;;;;4.00;2.17;;;15.60;52.00;;;;;;5089726;28;20418;-75
2022/10/22 00:41:33;;;;;;;3.00;2.37;;;15.70;47.30;;;;;;5091939;28;20479;-76
2022/10/22 00:44:01;;;;;;;10.83;2.63;;;15.70;52.20;;;;;;5088449;28;20215;-75
2022/10/22 00:46:27;;;;;;;4.07;2.30;;;15.70;52.80;;;;;;5087920;28;20195;-75
2022/10/22 00:48:55;;;;;;;5.33;2.20;;;15.60;53.60;;;;;;5089270;28;20422;-75
2022/10/22 00:51:26;;;;;;;5.10;2.30;;;15.60;48.20;;;;;;5089151;28;20242;-76
2022/10/22 00:53:59;;;;;;;7.10;2.23;;;15.60;43.90;;;;;;5090000;28;20904;-75
2022/10/22 00:56:25;;;;;;;4.30;1.90;;;15.90;43.00;;;;;;5089492;28;20433;-75
2022/10/22 00:58:58;;;;;;;4.23;2.07;;;15.60;42.80;;;;;;5097190;28;20516;-75
2022/10/22 01:01:27;;;;;;;5.93;2.23;;;15.70;42.70;;;;;;5091603;27;20978;-75
2022/10/22 01:03:53;;;;;;;5.73;2.07;;;15.70;42.80;;;;;;5088816;28;20429;-75
2022/10/22 01:06:26;;;;;;;7.30;2.03;;;15.70;42.80;;;;;;5086531;28;20448;-76
2022/10/22 01:09:12;;;;;;;5.70;1.77;;;15.70;42.80;;;;;;5088858;28;20429;-75
2022/10/22 01:12:15;;;;;;;4.17;1.60;;;15.70;42.80;;;;;;5088861;28;20469;-75
2022/10/22 01:14:59;;;;;;;3.23;1.70;;;15.60;42.60;;;;;;5088764;28;20979;-75
2022/10/22 01:17:27;;;;;;;1.93;1.53;;;15.70;42.70;;;;;;5100356;28;20429;-77
2022/10/22 01:20:11;;;;;;;6.40;1.63;;;15.70;42.70;;;;;;5089030;28;20456;-77
2022/10/22 01:22:44;;;;;;;6.73;1.30;;;15.70;37.20;;;;;;5088531;28;20947;-76
2022/10/22 01:25:27;;;;;;;2.43;1.40;;;15.80;35.70;;;;;;5089695;28;20421;-75
2022/10/22 01:28:17;;;;;;;3.43;1.50;;;15.70;37.50;;;;;;5089186;28;20410;-75
2022/10/22 01:30:45;;;;;;;3.77;1.53;;;15.80;36.60;;;;;;5087775;28;20434;-75
2022/10/22 01:33:13;;;;;;;5.57;1.37;;;15.70;42.80;;;;;;5089738;28;20522;-75
2022/10/22 01:35:43;;;;;;;4.50;1.67;;;15.70;42.70;;;;;;5084865;28;20448;-76
2022/10/22 01:38:14;;;;;;;2.03;1.50;;;15.70;42.80;;;;;;5088182;28;20429;-75
2022/10/22 01:40:41;;;;;;;4.30;1.60;;;15.70;42.70;;;;;;5087596;28;20436;-75
2022/10/22 01:43:09;;;;;;;5.30;1.60;;;15.80;42.90;;;;;;5088684;28;20417;-76
2022/10/22 01:45:46;;;;;;;6.10;2.50;;;15.80;42.90;;;;;;5089070;28;20433;-75
2022/10/22 01:48:36;;;;;;;3.47;1.73;;;15.80;42.90;;;;;;5089158;28;20524;-75
2022/10/22 01:51:36;;;;;;;3.10;1.70;;;15.80;42.80;;;;;;5086853;28;20457;-75
2022/10/22 01:54:40;;;;;;;4.03;1.70;;;15.80;42.90;;;;;;5087585;28;20425;-75
2022/10/22 01:57:28;;;;;;;4.13;2.00;;;15.80;42.80;;;;;;5089120;28;20460;-75
2022/10/22 02:00:23;;;;;;;3.27;1.53;;;15.70;42.70;;;;;;5088170;28;20445;-76
2022/10/22 02:03:00;;;;;;;2.40;1.50;;;15.80;43.00;;;;;;5083436;28;20449;-75
2022/10/22 02:05:47;;;;;;;3.20;1.33;;;15.30;42.60;;;;;;5086875;28;20417;-75
2022/10/22 02:08:19;;;;;;;1.97;1.20;;;15.20;42.50;;;;;;5089211;28;20426;-75
2022/10/22 02:10:46;;;;;;;3.43;1.50;;;15.10;49.00;;;;;;5088343;28;20414;-75
2022/10/22 02:13:17;;;;;;;3.23;1.40;;;15.10;47.60;;;;;;5084779;28;20410;-76
2022/10/22 02:15:45;;;;;;;1.83;1.20;;;15.20;44.50;;;;;;5088148;28;20947;-75
2022/10/22 02:18:11;;;;;;;5.13;1.30;;;15.30;42.50;;;;;;5088666;28;20413;-76
2022/10/22 02:20:39;;;;;;;2.43;1.10;;;15.30;42.50;;;;;;5087885;28;20453;-75
2022/10/22 02:23:05;;;;;;;5.50;1.40;;;15.30;42.50;;;;;;5090860;28;20410;-75
2022/10/22 02:25:35;;;;;;;2.77;1.30;;;15.40;42.60;;;;;;5096442;28;20785;-75
2022/10/22 02:28:22;;;;;;;1.87;1.10;;;15.30;42.50;;;;;;5088878;28;20172;-75
2022/10/22 02:30:54;;;;;;;4.30;1.10;;;15.20;42.30;;;;;;5087909;28;20520;-75
2022/10/22 02:33:29;;;;;;;2.60;1.20;;;15.20;42.50;;;;;;5088272;28;20421;-75
2022/10/22 02:35:55;;;;;;;1.67;0.90;;;15.30;48.40;;;;;;5082549;28;20991;-76
2022/10/22 02:38:23;;;;;;;1.73;1.20;;;15.30;47.10;;;;;;5088374;28;20509;-75
2022/10/22 02:40:49;;;;;;;4.87;1.53;;;15.30;42.60;;;;;;5086949;28;20721;-75
2022/10/22 02:43:17;;;;;;;5.17;1.10;;;15.30;45.00;;;;;;5087936;28;20505;-74
2022/10/22 02:45:43;;;;;;;2.83;1.40;;;15.30;45.10;;;;;;5069218;28;20183;-75
2022/10/22 02:48:09;;;;;;;1.20;1.00;;;15.30;42.60;;;;;;5088004;28;20775;-76
2022/10/22 02:50:35;;;;;;;2.40;1.17;;;15.30;42.70;;;;;;5089012;28;20703;-76
2022/10/22 02:53:00;;;;;;;2.40;1.07;;;15.30;44.60;;;;;;5091742;28;20231;-77
2022/10/22 02:55:26;;;;;;;5.00;1.30;;;15.30;48.60;;;;;;5090677;28;20490;-75
2022/10/22 02:57:51;;;;;;;2.63;1.10;;;15.40;50.70;;;;;;5092690;28;21088;-75
2022/10/22 03:00:18;;;;;;;4.87;1.40;;;15.40;54.30;;;;;;5091330;28;20186;-75
2022/10/22 03:02:43;;;;;;;1.30;1.20;;;15.50;53.30;;;;;;5091326;28;20304;-75
2022/10/22 03:05:09;;;;;;;2.30;1.40;;;15.50;52.80;;;;;;5089615;28;20520;-75
2022/10/22 03:07:35;;;;;;;2.50;1.40;;;15.50;57.10;;;;;;5091953;28;20534;-74
2022/10/22 03:10:00;;;;;;;3.43;1.30;;;15.50;54.60;;;;;;5091547;28;20561;-75
2022/10/22 03:12:26;;;;;;;9.70;1.87;;;15.40;55.60;;;;;;5090179;28;20207;-75
2022/10/22 03:14:51;;;;;;;2.50;1.80;;;15.40;57.10;;;;;;5093507;28;20184;-76
2022/10/22 03:17:17;;;;;;;8.23;2.10;;;15.30;57.70;;;;;;5092243;28;20252;-74
2022/10/22 03:19:42;;;;;;;2.03;1.30;;;15.30;55.00;;;;;;5090511;28;20295;-75
2022/10/22 03:22:31;;;;;;;6.80;1.50;;;15.30;56.80;;;;;;5091919;28;20200;-76
2022/10/22 03:25:06;;;;;;;2.60;1.50;;;15.30;54.30;;;;;;5091901;28;20229;-74
2022/10/22 03:27:33;;;;;;;2.57;1.10;;;15.30;56.30;;;;;;5091253;28;20433;-75
2022/10/22 03:29:59;;;;;;;5.00;1.30;;;15.30;55.90;;;;;;5090058;28;20442;-74
2022/10/22 03:32:24;;;;;;;5.47;1.50;;;15.20;54.40;;;;;;5090845;28;20500;-76
2022/10/22 03:34:50;;;;;;;1.30;1.20;;;15.20;57.40;;;;;;5088500;28;20218;-74
2022/10/22 03:37:16;;;;;;;2.30;1.40;;;15.20;57.00;;;;;;5091184;28;20194;-75
2022/10/22 03:39:41;;;;;;;1.70;1.30;;;15.20;56.60;;;;;;5090725;28;20171;-75
2022/10/22 03:42:07;;;;;;;3.37;1.80;;;15.20;53.70;;;;;;5091135;28;20654;-76
2022/10/22 03:44:35;;;;;;;3.87;2.60;;;15.10;54.30;;;;;;5090382;28;20180;-75
2022/10/22 03:47:01;;;;;;;2.20;2.00;;;15.20;55.20;;;;;;5091318;28;20462;-77
2022/10/22 03:49:26;;;;;;;2.00;1.50;;;15.20;53.00;;;;;;5100674;28;20433;-74
2022/10/22 03:51:52;;;;;;;3.27;1.37;;;15.20;53.90;;;;;;5091086;28;20433;-74
2022/10/22 03:54:17;;;;;;;2.70;1.20;;;15.70;53.50;;;;;;5090997;28;20167;-77
2022/10/22 03:56:43;;;;;;;2.67;1.30;;;15.20;54.20;;;;;;5089571;28;20194;-75
2022/10/22 03:59:09;;;;;;;3.23;1.80;;;15.10;56.20;;;;;;5091283;28;20254;-76
2022/10/22 04:01:34;;;;;;;6.00;2.00;;;15.10;55.60;;;;;;5090225;28;20200;-76
2022/10/22 04:04:00;;;;;;;2.90;1.50;;;15.00;58.70;;;;;;5087689;28;20252;-75
2022/10/22 04:06:25;;;;;;;2.17;1.30;;;14.90;62.40;;;;;;5088841;28;20191;-76
2022/10/22 04:08:51;;;;;;;1.60;1.43;;;14.80;64.90;;;;;;5090043;28;20187;-75
2022/10/22 04:11:17;;;;;;;6.90;1.60;;;14.80;67.30;;;;;;5089636;28;20290;-76
2022/10/22 04:13:42;;;;;;;3.13;1.60;;;14.70;68.20;;;;;;5086074;28;20354;-76
2022/10/22 04:16:12;;;;;;;2.57;1.50;;;14.70;72.80;;;;;;5090150;28;20180;-73
2022/10/22 04:18:39;;;;;;;3.87;1.43;;;14.60;76.60;;;;;;5089595;28;20168;-75
2022/10/22 04:21:07;;;;;;;4.30;1.80;;;14.60;75.80;;;;;;5089863;28;20449;-75
2022/10/22 04:23:32;;;;;;;5.50;1.70;;;14.50;73.80;;;;;;5103236;28;20432;-75
2022/10/22 04:25:59;;;;;;;3.57;2.17;;;14.40;75.70;;;;;;5091433;28;20417;-75
2022/10/22 04:28:25;;;;;;;3.17;2.40;;;14.40;77.70;;;;;;5089683;28;20180;-75
2022/10/22 04:30:50;;;;;;;6.33;2.70;;;14.30;77.60;;;;;;5089991;28;20797;-75
2022/10/22 04:33:17;;;;;;;2.80;1.83;;;14.20;77.40;;;;;;5090028;28;20172;-75
2022/10/22 04:35:42;;;;;;;4.87;1.60;;;14.10;81.70;;;;;;5089999;28;20184;-74
2022/10/22 04:38:08;;;;;;;7.83;1.50;;;14.50;84.80;;;;;;5089916;28;20504;-75
2022/10/22 04:40:33;;;;;;;2.60;1.50;;;14.00;89.70;;;;;;5102909;28;20207;-74
2022/10/22 04:42:59;;;;;;;1.80;1.70;;;13.90;89.10;;;;;;5089544;28;20214;-75
2022/10/22 04:45:24;;;;;;;3.90;1.63;;;13.90;88.30;;;;;;5089039;28;20183;-76
2022/10/22 04:47:50;;;;;;;6.33;2.03;;;13.80;87.80;;;;;;5087456;28;20661;-75
2022/10/22 04:50:16;;;;;;;2.00;1.80;;;13.80;93.40;;;;;;5089425;28;20180;-74
2022/10/22 04:52:41;;;;;;;3.53;2.60;;;13.80;91.90;;;;;;5090107;28;20554;-75
2022/10/22 04:55:07;;;;;;;2.40;2.20;;;13.70;93.10;;;;;;5089910;28;20553;-76
2022/10/22 04:57:33;;;;;;;11.63;2.07;;;13.80;94.20;;;;;;5088182;28;20179;-75
2022/10/22 04:59:58;;;;;;;4.83;2.10;;;13.80;93.50;;;;;;5088617;28;20187;-74
2022/10/22 05:02:24;;;;;;;4.10;2.00;;;13.80;94.00;;;;;;5089190;28;20207;-76
2022/10/22 05:04:49;;;;;;;4.00;2.03;;;13.80;91.70;;;;;;5087018;28;20178;-75
2022/10/22 05:07:15;;;;;;;2.30;1.90;;;13.80;93.00;;;;;;5089822;28;20638;-75
2022/10/22 05:09:41;;;;;;;4.03;2.10;;;13.80;91.40;;;;;;5089400;28;20168;-75
2022/10/22 05:12:06;;;;;;;7.90;1.87;;;13.80;94.10;;;;;;5088066;28;20208;-75
2022/10/22 05:14:32;;;;;;;6.40;2.37;;;13.90;93.90;;;;;;5096899;28;20179;-76
2022/10/22 05:16:58;;;;;;;10.90;2.70;;;13.80;91.70;;;;;;5089256;28;20250;-75
2022/10/22 05:19:29;;;;;;;6.53;2.23;;;13.70;91.20;;;;;;5088448;28;20425;-76
2022/10/22 05:21:58;;;;;;;2.60;2.20;;;13.70;91.40;;;;;;5089117;28;20194;-76
2022/10/22 05:24:24;;;;;;;6.07;2.40;;;13.70;92.20;;;;;;5072435;28;20433;-75
2022/10/22 05:26:52;;;;;;;4.37;1.97;;;13.70;93.20;;;;;;5089299;28;20418;-75
2022/10/22 05:29:18;;;;;;;4.60;2.70;;;13.80;93.80;;;;;;5087952;28;20832;-75
2022/10/22 05:31:43;;;;;;;11.43;2.53;;;13.70;90.70;;;;;;5097603;28;21090;-75
2022/10/22 05:34:09;;;;;;;3.17;2.50;;;13.70;91.80;;;;;;5087000;28;20533;-75
2022/10/22 05:36:35;;;;;;;6.43;2.33;;;13.70;90.30;;;;;;5087674;28;20564;-76
2022/10/22 05:39:01;;;;;;;4.90;2.73;;;13.60;89.90;;;;;;5088453;28;20174;-75
2022/10/22 05:41:27;;;;;;;5.30;2.40;;;13.90;91.20;;;;;;5089092;28;20211;-75
2022/10/22 05:43:54;;;;;;;6.07;2.70;;;13.60;90.70;;;;;;5087098;28;20186;-75
2022/10/22 05:46:22;;;;;;;8.30;3.50;;;13.50;90.10;;;;;;5089048;28;20421;-75
2022/10/22 05:48:52;;;;;;;5.87;3.57;;;13.50;93.20;;;;;;5088487;28;20422;-75
2022/10/22 05:51:19;;;;;;;7.80;3.20;;;13.50;91.60;;;;;;5092492;28;21012;-74
2022/10/22 05:53:44;;;;;;;4.00;2.87;;;13.50;92.30;;;;;;5092839;28;20500;-76
2022/10/22 05:56:15;;;;;;;4.27;2.77;;;13.50;91.50;;;;;;5089776;28;20821;-78
2022/10/22 05:58:42;;;;;;;6.00;2.80;;;14.10;90.90;;;;;;5087108;28;20167;-76
2022/10/22 06:01:12;;;;;;;4.70;2.80;;;13.50;88.70;;;;;;5088577;28;20449;-75
2022/10/22 06:03:38;;;;;;;4.13;3.17;;;13.50;90.70;;;;;;5088694;28;20426;-76
2022/10/22 06:06:13;;;;;;;9.93;5.33;;;13.50;90.00;;;;;;5088635;28;20474;-74
2022/10/22 06:08:39;;;;;;;16.77;7.73;;;13.50;89.00;;;;;;5088804;28;20653;-76
2022/10/22 06:11:04;;;;;;;12.40;7.83;;;13.50;90.00;;;;;;5088555;28;20465;-74
2022/10/22 06:13:31;;;;;;;10.40;7.13;;;13.50;90.40;;;;;;5084901;28;20601;-74
2022/10/22 06:15:57;;;;;;;14.00;7.27;;;13.50;87.40;;;;;;5088840;28;20518;-75
2022/10/22 06:18:22;;;;;;;12.57;7.10;;;13.50;87.20;;;;;;5088163;28;20611;-75
2022/10/22 06:20:48;;;;;;;10.70;6.33;;;13.50;80.10;;;;;;5086848;28;20262;-77
2022/10/22 06:23:14;;;;;;;6.63;5.23;;;13.50;82.40;;;;;;5087554;28;20187;-76
2022/10/22 06:25:40;;;;;;;13.93;4.40;;;13.50;87.60;;;;;;5090493;28;20288;-75
2022/10/22 06:28:05;;;;;;;6.60;4.30;;;13.50;90.80;;;;;;5091065;28;20649;-75
2022/10/22 06:30:31;;;;;;;6.87;4.77;;;13.60;91.10;;;;;;5092350;28;20278;-74
2022/10/22 06:32:56;;;;;;;5.77;3.93;;;13.70;91.70;;;;;;5091963;28;20212;-76
2022/10/22 06:35:22;;;;;;;6.30;4.13;;;13.80;91.20;;;;;;5091445;28;20176;-75
2022/10/22 06:37:47;;;;;;;7.47;4.00;;;13.90;86.00;;;;;;5090796;28;20175;-75
2022/10/22 06:40:13;;;;;;;8.00;3.53;;;14.00;88.40;;;;;;5110870;28;20326;-75
2022/10/22 06:42:38;;;;;;;3.73;3.20;;;14.10;84.00;;;;;;5090641;28;20199;-74
2022/10/22 06:45:04;;;;;;;5.43;2.40;;;14.10;83.80;;;;;;5091793;28;20638;-74
2022/10/22 06:47:32;;;;;;;3.17;2.57;;;14.20;85.00;;;;;;5090358;28;20179;-75
2022/10/22 06:49:57;;;;;;;4.90;2.63;;;14.30;85.50;;;;;;5091544;28;20499;-75
2022/10/22 06:52:23;;;;;;;8.30;2.90;;;14.40;83.50;;;;;;5092173;28;20783;-75
2022/10/22 06:54:48;;;;;;;8.03;2.77;;;15.00;79.50;;;;;;5092666;28;20164;-74
2022/10/22 06:57:14;;;;;;;7.07;2.70;;;15.00;81.00;;;;;;5092602;28;20184;-75
2022/10/22 06:59:39;;;;;;;4.00;2.80;;;14.60;77.10;;;;;;5081452;28;20219;-76
2022/10/22 07:02:05;;;;;;;5.47;2.93;;;14.70;73.10;;;;;;5080105;28;20673;-75
2022/10/22 07:04:31;;;;;;;3.90;3.20;;;14.70;72.90;;;;;;5082831;28;20628;-74
2022/10/22 07:06:56;;;;;;;5.83;3.10;;;14.70;66.00;;;;;;5100644;28;20180;-75
2022/10/22 07:09:22;;;;;;;4.20;3.27;;;14.80;66.60;;;;;;5092019;28;20253;-76
2022/10/22 07:11:47;;;;;;;6.13;3.50;;;15.10;62.90;;;;;;5089914;28;20207;-74
2022/10/22 07:14:14;;;;;;;3.77;2.90;;;14.90;61.10;;;;;;5090751;28;20284;-74
2022/10/22 07:16:44;;;;;;;7.73;3.70;;;15.00;62.60;;;;;;5089789;28;20263;-74
2022/10/22 07:19:10;;;;;;;4.50;3.40;;;15.10;55.10;;;;;;5090922;28;20417;-75
2022/10/22 07:21:35;;;;;;;7.23;3.50;;;15.10;58.70;;;;;;5091017;28;20452;-74
2022/10/22 07:24:01;;;;;;;4.73;3.27;;;15.30;56.20;;;;;;5091790;28;20524;-75
2022/10/22 07:26:29;;;;;;;5.80;3.20;;;15.40;56.70;;;;;;5091223;28;20262;-74
2022/10/22 07:28:55;;;;;;;8.90;3.17;;;15.50;56.00;;;;;;5090389;28;20264;-75
2022/10/22 07:31:21;;;;;;;3.40;3.10;;;15.60;46.50;;;;;;5089010;28;20548;-74
2022/10/22 07:33:47;;;;;;;4.00;3.03;;;16.20;43.20;;;;;;5090442;28;20508;-75
2022/10/22 07:36:16;;;;;;;5.10;2.77;;;15.70;42.80;;;;;;5084173;28;20175;-76
2022/10/22 07:38:44;;;;;;;4.77;3.00;;;15.80;45.50;;;;;;5090373;28;20184;-78
2022/10/22 07:41:09;;;;;;;6.07;2.80;;;15.90;45.70;;;;;;5091337;28;20533;-77
2022/10/22 07:43:35;;;;;;;4.90;2.20;;;16.00;43.00;;;;;;5089935;28;20521;-76
2022/10/22 07:46:01;;;;;;;3.30;1.90;;;16.20;43.20;;;;;;5081385;28;20186;-77
2022/10/22 07:48:27;;;;;;;3.53;1.80;;;16.30;43.20;;;;;;5093229;28;20260;-76
2022/10/22 07:50:53;;;;;;;2.97;1.80;;;16.50;35.70;;;;;;5089657;28;20520;-76
2022/10/22 07:53:20;;;;;;;2.43;1.57;;;16.60;43.60;;;;;;5091274;28;20449;-77
2022/10/22 07:55:49;;;;;;;6.73;2.10;;;16.70;31.60;;;;;;5084329;28;20195;-79
2022/10/22 07:58:16;;;;;;;3.40;2.17;;;16.80;27.20;;;;;;5089378;28;20539;-77
2022/10/22 08:00:42;;;;;;;1.97;1.70;;;16.90;28.40;;;;;;5090313;28;20413;-76
2022/10/22 08:03:10;;;;;;;3.20;1.50;;;17.00;23.30;;;;;;5090927;28;20428;-76
2022/10/22 08:05:36;;;;;;;3.57;1.77;;;17.20;22.90;;;;;;5089859;28;20176;-77
2022/10/22 08:08:01;;;;;;;1.43;1.30;;;17.20;18.50;;;;;;5089251;28;20920;-78
2022/10/22 08:10:27;;;;;;;3.27;1.90;;;17.10;9.20;;;;;;5091395;28;20407;-79
2022/10/22 08:12:52;;;;;;;4.23;2.23;;;17.00;14.40;;;;;;5088728;28;20631;-80
2022/10/22 08:15:18;;;;;;;2.33;1.57;;;17.00;20.30;;;;;;5091438;28;20190;-81
2022/10/22 08:17:43;;;;;;;1.53;1.40;;;17.20;11.20;;;;;;5089753;28;20175;-80
2022/10/22 08:20:09;;;;;;;1.60;1.50;;;17.20;6.20;;;;;;5091631;28;20207;-79
2022/10/22 08:22:35;;;;;;;2.40;1.20;;;17.20;5.40;;;;;;5091442;28;20215;-79
2022/10/22 08:25:00;;;;;;;5.70;1.60;;;17.40;5.60;;;;;;5087329;28;20425;-82
2022/10/22 08:27:26;;;;;;;1.50;1.40;;;17.40;4.80;;;;;;5090292;28;20172;-80
2022/10/22 08:29:51;;;;;;;4.40;1.37;;;17.30;2.70;;;;;;5091703;28;20200;-79
2022/10/22 08:32:17;;;;;;;3.10;1.47;;;17.30;5.50;;;;;;5090961;28;20274;-80
2022/10/22 08:34:42;;;;;;;1.77;1.30;;;17.30;6.50;;;;;;5089920;28;20226;-80
2022/10/22 08:37:09;;;;;;;2.03;1.50;;;17.40;2.40;;;;;;5090615;28;20179;-79
2022/10/22 08:39:34;;;;;;;1.80;1.20;;;17.50;1.00;;;;;;5091879;28;20627;-79
2022/10/22 08:42:57;;;;;;;1.50;1.20;;;18.40;1.00;;;;;;5090157;28;20548;-80
2022/10/22 08:45:31;;;;;;;3.83;1.30;;;20.50;1.00;;;;;;5090685;28;20207;-80
2022/10/22 08:48:07;;;;;;;5.50;1.97;;;22.60;1.00;;;;;;5091712;28;20434;-80
2022/10/22 08:50:44;;;;;;;3.67;1.43;;;24.00;1.00;;;;;;5083390;28;20433;-80
2022/10/22 08:53:16;;;;;;;4.40;1.63;;;25.40;1.00;;;;;;5078801;28;20523;-80
2022/10/22 08:55:43;;;;;;;3.40;1.70;;;26.10;1.00;;;;;;5086011;28;20441;-80
2022/10/22 08:58:27;;;;;;;2.43;1.20;;;26.60;1.00;;;;;;5086019;28;20486;-81
2022/10/22 09:01:00;;;;;;;4.20;1.67;;;26.90;1.00;;;;;;5092986;28;20446;-82
2022/10/22 09:03:31;;;;;;;3.63;1.43;;;26.70;1.00;;;;;;5096140;28;20409;-81
2022/10/22 09:06:14;;;;;;;4.30;1.30;;;25.80;1.00;;;;;;5089583;28;20417;-80
2022/10/22 09:08:42;;;;;;;4.10;1.40;;;24.90;1.00;;;;;;5097664;28;20537;-80
2022/10/22 09:11:18;;;;;;;3.80;1.53;;;24.20;1.00;;;;;;5106158;28;20491;-79
2022/10/22 09:13:45;;;;;;;3.37;1.30;;;25.10;1.00;;;;;;5087877;28;20417;-79
2022/10/22 09:16:24;;;;;;;2.07;1.10;;;26.30;1.00;;;;;;5089667;28;21014;-79
2022/10/22 09:19:19;;;;;;;3.20;1.10;;;27.60;1.00;;;;;;5090313;28;20799;-80
2022/10/22 09:22:15;;;;;;;2.67;1.10;;;29.70;1.00;;;;;;5087573;28;20512;-79
2022/10/22 09:24:46;;;;;;;2.77;1.10;;;30.70;1.00;;;;;;5090288;28;20529;-79
2022/10/22 09:27:18;;;;;;;2.40;1.10;;;31.00;1.00;;;;;;5087963;28;20183;-79
2022/10/22 09:29:46;;;;;;;3.20;1.30;;;31.50;1.00;;;;;;5094096;28;20553;-79
2022/10/22 09:32:12;;;;;;;2.70;1.10;;;31.00;1.00;;;;;;5088751;28;20664;-79
2022/10/22 09:34:38;;;;;;;3.47;1.20;;;29.80;1.00;;;;;;5083586;28;20315;-79
2022/10/22 09:37:09;;;;;;;3.83;1.67;;;29.10;1.00;;;;;;5070383;28;20175;-81
2022/10/22 09:39:43;;;;;;;2.65;1.10;;;29.50;1.00;;;;;;5068935;28;20171;-79
2022/10/22 09:42:13;;;;;;;3.95;1.27;;;30.30;1.00;;;;;;5073670;28;20206;-78
2022/10/22 09:44:38;;;;;;;3.22;1.13;;;30.70;1.00;;;;;;5087910;28;20266;-77
2022/10/22 09:47:17;;;;;;;3.90;1.10;;;31.00;1.00;;;;;;5088876;28;20205;-76
2022/10/22 09:49:42;;;;;;;2.22;1.20;;;31.00;1.00;;;;;;5089368;28;20171;-77
2022/10/22 09:52:25;;;;;;;4.35;1.27;;;30.70;1.00;;;;;;5089790;28;20198;-77
2022/10/22 09:54:51;;;;;;;2.88;1.30;;;30.80;1.00;;;;;;5089952;28;20167;-77
2022/10/22 09:57:21;;;;;;;6.22;1.25;;;31.00;1.00;;;;;;5088044;28;20259;-77
2022/10/22 09:59:49;;;;;;;3.72;1.25;;;31.80;1.00;;;;;;5090455;28;20262;-77
2022/10/22 10:02:20;;;;;;;3.65;1.10;;;32.40;1.00;;;;;;5092846;28;20649;-79
2022/10/22 10:04:56;;;;;;;3.95;1.27;;;32.60;1.00;;;;;;5091969;28;20254;-79
2022/10/22 10:07:26;;;;;;;1.92;1.10;;;32.70;1.00;;;;;;5094017;28;20210;-77
2022/10/22 10:09:53;;;;;;;3.30;1.40;;;32.90;1.00;;;;;;5094587;28;20163;-79
2022/10/22 10:12:37;;;;;;;4.30;1.17;;;32.20;1.00;;;;;;5093202;28;20274;-77
2022/10/22 10:15:20;;;;;;;2.65;1.30;;;32.60;1.00;;;;;;5092435;28;20175;-78
2022/10/22 10:18:03;;;;;;;2.40;1.15;;;33.30;1.00;;;;;;5094611;28;20292;-78
2022/10/22 10:20:45;;;;;;;2.60;1.08;;;33.10;1.00;;;;;;5088469;28;20179;-77
2022/10/22 10:23:22;;;;;;;2.20;1.20;;;33.70;1.00;;;;;;5094086;28;20186;-79
2022/10/22 10:26:16;;;;;;;4.35;1.40;;;34.10;1.00;;;;;;5090839;28;20175;-80
2022/10/22 10:29:15;;;;;;;2.75;1.30;;;34.60;1.00;;;;;;5094443;28;20186;-80
2022/10/22 10:32:13;;;;;;;4.68;1.40;;;34.50;1.00;;;;;;5093884;28;20607;-80
2022/10/22 10:34:50;;;;;;;3.78;1.38;;;34.50;1.00;;;;;;5093857;28;20688;-79
2022/10/22 10:37:48;;;;;;;5.22;1.40;;;35.20;1.00;;;;;;5095366;28;20220;-79
2022/10/22 10:40:41;;;;;;;4.55;1.40;;;35.30;1.00;;;;;;5086620;28;20187;-80
2022/10/22 10:43:20;;;;;;;6.75;1.88;;;36.10;1.00;;;;;;5092994;28;20167;-79
2022/10/22 10:46:16;;;;;;;4.47;1.40;;;35.80;1.00;;;;;;5093348;28;20511;-78
2022/10/22 10:48:50;;;;;;;3.55;1.25;;;35.70;1.00;;;;;;5093640;28;20540;-78
2022/10/22 10:51:37;;;;;;;4.40;1.35;;;35.20;1.00;;;;;;5092225;28;20695;-78
2022/10/22 10:54:28;;;;;;;4.03;1.10;;;35.90;1.00;;;;;;5101026;28;20181;-80
2022/10/22 10:57:03;;;;;;;3.88;1.17;;;36.50;1.00;;;;;;5111806;28;20171;-78
2022/10/22 10:59:47;;;;;;;3.72;1.23;;;36.60;1.00;;;;;;5104106;28;20163;-78
2022/10/22 11:02:30;;;;;;;4.97;1.60;;;35.60;1.00;;;;;;5088165;28;20274;-78
2022/10/22 11:05:27;;;;;;;2.65;1.40;;;36.40;1.00;;;;;;5092488;28;20171;-77
2022/10/22 11:08:17;;;;;;;4.35;1.40;;;36.60;1.00;;;;;;5075585;28;20480;-77
2022/10/22 11:10:53;;;;;;;2.65;1.38;;;35.10;1.00;;;;;;5078701;28;20270;-78
2022/10/22 11:13:28;;;;;;;3.63;1.30;;;35.20;1.00;;;;;;5092242;28;20245;-79
2022/10/22 11:16:23;;;;;;;3.40;1.30;;;36.20;1.00;;;;;;5091254;28;20420;-77
2022/10/22 11:19:04;;;;;;;3.85;1.23;;;36.50;1.00;;;;;;5093005;28;20155;-77
2022/10/22 11:21:39;;;;;;;3.50;1.40;;;35.90;1.00;;;;;;5092022;28;20201;-81
2022/10/22 11:24:27;;;;;;;5.40;1.30;;;37.00;1.00;;;;;;5092338;28;20184;-79
2022/10/22 11:27:10;;;;;;;5.38;1.70;;;35.50;1.00;;;;;;5092460;28;20178;-78
2022/10/22 11:29:43;;;;;;;5.85;1.40;;;32.80;1.00;;;;;;5082489;28;20218;-78
2022/10/22 11:32:17;;;;;;;4.72;1.50;;;30.90;1.00;;;;;;5091502;28;20199;-79
2022/10/22 11:34:53;;;;;;;5.22;1.60;;;30.90;1.00;;;;;;5090423;28;20158;-78
2022/10/22 11:37:21;;;;;;;4.38;1.50;;;31.30;1.00;;;;;;5088981;28;20236;-79
2022/10/22 11:39:51;;;;;;;4.63;1.55;;;31.40;1.00;;;;;;5091873;28;20168;-79
2022/10/22 11:42:22;;;;;;;3.00;1.40;;;30.90;1.00;;;;;;5091681;28;20278;-79
2022/10/22 11:44:56;;;;;;;3.40;1.40;;;29.40;1.00;;;;;;5092187;28;20232;-77
2022/10/22 11:47:28;;;;;;;6.80;1.53;;;28.50;1.00;;;;;;5091537;28;20170;-79
2022/10/22 11:50:17;;;;;;;2.70;1.30;;;27.70;1.00;;;;;;5091651;28;20179;-79
2022/10/22 11:53:04;;;;;;;2.50;1.20;;;28.20;1.00;;;;;;5091625;28;20205;-78
2022/10/22 11:55:45;;;;;;;2.63;1.40;;;28.70;1.00;;;;;;5092173;28;20199;-79
2022/10/22 11:58:29;;;;;;;5.03;1.40;;;30.30;1.00;;;;;;5091776;28;20166;-79
2022/10/22 12:00:56;;;;;;;3.28;1.30;;;31.10;1.00;;;;;;5090396;28;20266;-79
2022/10/22 12:03:30;;;;;;;3.05;1.38;;;32.20;1.00;;;;;;5091697;28;20277;-78
2022/10/22 12:06:10;;;;;;;4.97;1.60;;;34.10;1.00;;;;;;5091291;28;20174;-78
2022/10/22 12:08:42;;;;;;;3.92;1.35;;;35.40;1.00;;;;;;5092082;28;20534;-79
2022/10/22 12:11:13;;;;;;;2.50;1.25;;;35.70;1.00;;;;;;5091620;28;20198;-78
2022/10/22 12:14:00;;;;;;;3.70;1.60;;;36.30;1.00;;;;;;5091458;28;20186;-78
2022/10/22 12:16:36;;;;;;;3.60;1.52;;;34.70;1.00;;;;;;5091133;28;20547;-80
2022/10/22 12:19:26;;;;;;;5.60;1.50;;;33.70;1.00;;;;;;5091659;28;20575;-80
2022/10/22 12:22:07;;;;;;;4.38;1.38;;;32.00;1.00;;;;;;5090399;28;20261;-78
2022/10/22 12:24:39;;;;;;;5.00;1.52;;;30.90;1.00;;;;;;5091728;28;20646;-78
2022/10/22 12:27:33;;;;;;;5.60;1.60;;;28.80;1.00;;;;;;5083110;28;20664;-79
2022/10/22 12:30:00;;;;;;;8.10;1.70;;;28.00;1.00;;;;;;5091001;28;20836;-78
2022/10/22 12:32:40;;;;;;;3.70;1.57;;;26.80;1.00;;;;;;5090026;28;20215;-77
2022/10/22 12:35:26;;;;;;;2.77;1.30;;;26.30;1.00;;;;;;5089697;28;20552;-78
2022/10/22 12:37:55;;;;;;;3.23;1.43;;;25.40;1.00;;;;;;5091495;28;20401;-77
2022/10/22 12:40:29;;;;;;;5.13;1.53;;;25.10;1.00;;;;;;5091264;28;20401;-78
2022/10/22 12:43:00;;;;;;;8.07;1.80;;;24.90;1.00;;;;;;5070292;28;20430;-79
2022/10/22 12:45:28;;;;;;;4.80;1.60;;;24.50;1.00;;;;;;5070880;28;20501;-78
2022/10/22 12:48:03;;;;;;;5.60;1.53;;;23.90;1.00;;;;;;5079267;28;20421;-78
2022/10/22 12:50:37;;;;;;;6.43;2.13;;;23.60;1.00;;;;;;5090270;28;20511;-78
2022/10/22 12:53:05;;;;;;;8.83;1.60;;;23.80;1.00;;;;;;5090626;28;20985;-78
2022/10/22 12:55:31;;;;;;;6.00;1.43;;;23.50;1.00;;;;;;5090724;28;20421;-78
2022/10/22 12:57:57;;;;;;;4.97;1.70;;;23.60;1.00;;;;;;5090629;28;20926;-78
2022/10/22 13:00:31;;;;;;;4.27;1.50;;;23.90;1.00;;;;;;5088344;28;20417;-78
2022/10/22 13:02:59;;;;;;;4.37;1.40;;;24.20;1.00;;;;;;5089595;28;20595;-78
2022/10/22 13:05:26;;;;;;;7.93;1.53;;;24.30;1.00;;;;;;5090336;28;20906;-78
2022/10/22 13:08:15;;;;;;;3.13;1.60;;;24.20;1.00;;;;;;5089503;28;20417;-78
2022/10/22 13:10:49;;;;;;;4.37;1.40;;;24.10;1.00;;;;;;5090905;28;20424;-77